• Join FlightAware (Why Join?)
  • Login
  • US Flag 
05:10AM EDT


 

Airport Tracker/Info


-or-


 

Live Flight TrackerFlight Track Log ✈ RPA4911 ✈ 02-Nov-2013 ✈ KALB - KEWR

Flight Track Log - Related Links

Times and Time Zones

All times are in EDT time to prevent confusion due to time zone crossing. See the RPA4911 flight status page for this flight to view local times or setup timezone preferences in your user account.

Time Position Orientation Groundspeed Altitude Reporting Facility
EDT Latitude Longitude Course Direction KTS MPH feet Rate Location/Type
06:09AM 42.7658 -73.8053 North 183 211 1,400  Level Boston Center
06:10AM 42.7792 -73.8039 North 181 208 1,900 2,580 Climbing Boston Center
06:10AM 42.8122 -73.8231 337° Northwest 198 228 3,900 3,480 Climbing Boston Center
06:11AM 42.8103 -73.8436 263° West 194 223 5,400 4,140 Climbing Boston Center
06:11AM 42.7853 -73.8661 213° Southwest 163 188 8,000 3,540 Climbing Boston Center
06:12AM 42.7711 -73.8711 195° South 162 186 9,100 2,100 Climbing Boston Center
06:12AM 42.7339 -73.8825 193° South 178 205 10,100 540 Climbing Boston Center
06:13AM 42.6631 -73.9103 196° South 266 306 10,100 -60 Level Boston Center
06:14AM 42.5869 -73.9314 192° South 279 321 10,000 420 Descending Boston Center
06:15AM 42.5111 -73.9528 192° South 278 320 11,000 1,620 Climbing Boston Center
06:16AM 42.4419 -73.9711 191° South 256 295 13,400 1,500 Climbing Boston Center
06:17AM 42.3717 -73.9928 193° South 261 300 14,100 300 Climbing Boston Center
06:18AM 42.2889 -74.0172 192° South 302 348 14,000 -60 Descending Boston Center
06:19AM 42.1997 -74.0472 194° South 307 353 14,000  Level Boston Center
06:20AM 42.1203 -74.0850 199° South 311 358 14,000  Level Boston Center
06:22AM 42.0400 -74.1192 198° South 305 351 14,000  Level Boston Center
06:22AM 41.9597 -74.1528 197° South 303 349 14,000 -120 Level Boston Center
06:23AM 41.8803 -74.1892 199° South 302 348 13,800 -660 Descending Boston Center
06:24AM 41.7953 -74.2258 198° South 299 344 12,700 -1,020 Descending Boston Center
06:26AM 41.7181 -74.2586 198° South 293 337 11,700 -1,020 Descending Boston Center
06:27AM 41.6433 -74.2889 197° South 284 327 10,700 -1,020 Descending Boston Center
06:28AM 41.5797 -74.3175 199° South 239 275 9,700 -960 Descending Boston Center
06:29AM 41.5167 -74.3453 198° South 241 277 8,800 -1,080 Descending Boston Center
06:30AM 41.4461 -74.3756 198° South 248 285 7,600 -1,080 Descending Boston Center
06:31AM 41.3822 -74.4028 198° South 243 280 6,700 -900 Descending Boston Center
06:31AM 41.3333 -74.4167 192° South 249 287 6,100 -360 Descending New York TRACON
06:32AM 41.2667 -74.4500 201° Southwest 249 287 6,100  Level New York TRACON
06:33AM 41.2167 -74.4833 207° Southwest 242 278 6,100  Level New York TRACON
06:34AM 41.1500 -74.5000 191° South 241 277 6,100  Level New York TRACON
06:35AM 41.0833 -74.5167 191° South 247 284 6,100 -240 Level New York TRACON
06:36AM 41.0167 -74.5000 169° South 251 289 5,700 -540 Descending New York TRACON
06:37AM 40.9500 -74.4833 169° South 261 300 5,100 -360 Descending New York TRACON
06:38AM 40.8833 -74.4667 169° South 266 306 5,100  Level New York TRACON
06:39AM 40.8167 -74.4500 169° South 263 303 5,100 -180 Level New York TRACON
06:40AM 40.7500 -74.4500 180° South 262 302 4,800 -900 Descending New York TRACON
06:41AM 40.6667 -74.4333 171° South 262 302 3,500 -900 Descending New York TRACON
06:42AM 40.6000 -74.4333 180° South 253 291 3,100 -240 Descending New York TRACON
06:43AM 40.5333 -74.4000 159° South 255 293 3,100  Level New York TRACON
06:44AM 40.5333 -74.3167 90° East 246 283 3,100 -480 Level New York TRACON
06:45AM 40.5667 -74.2333 62° Northeast 254 292 2,200 -840 Descending New York TRACON
06:46AM 40.6167 -74.2167 14° North 165 190 1,500 -660 Descending New York TRACON
06:47AM 40.6500 -74.2000 21° North 111 128 900 -600 Descending New York TRACON
06:48AM 40.6667 -74.1833 37° Northeast 106 122 300 -600 Descending New York TRACON